createdAt,value
2023-02-07T00:00:21.209Z,-1.9
2023-02-07T00:02:21.659Z,-1.8
2023-02-07T00:04:21.464Z,-1.8
2023-02-07T00:06:23.910Z,-1.9
2023-02-07T00:08:23.835Z,-1.9
2023-02-07T00:10:23.720Z,-2
2023-02-07T00:12:26.167Z,-2
2023-02-07T00:14:26.097Z,-2
2023-02-07T00:16:26.122Z,-1.9
2023-02-07T00:18:28.457Z,-2
2023-02-07T00:20:28.375Z,-2.1
2023-02-07T00:22:28.304Z,-2
2023-02-07T00:24:30.737Z,-1.9
2023-02-07T00:26:30.669Z,-2
2023-02-07T00:28:30.701Z,-2.1
2023-02-07T00:30:33.073Z,-2
2023-02-07T00:38:35.227Z,-2.1
2023-02-07T00:40:35.145Z,-2.1
2023-02-07T00:44:37.500Z,-2.2
2023-02-07T00:46:37.418Z,-2.2
2023-02-07T01:02:07.647Z,-2.5
2023-02-07T01:08:09.893Z,-2.4
2023-02-07T01:12:12.277Z,-2.3
2023-02-07T01:14:12.195Z,-2.4
2023-02-07T01:25:58.399Z,-2.3
2023-02-07T01:27:58.311Z,-2.6
2023-02-07T01:29:58.208Z,-2.6
2023-02-07T01:32:00.645Z,-2.7
2023-02-07T01:40:02.872Z,-2.7
2023-02-07T01:42:02.785Z,-2.6
2023-02-07T01:44:05.253Z,-2.6
2023-02-07T01:46:05.246Z,-2.5
2023-02-07T01:48:05.056Z,-2.6
2023-02-07T01:50:07.522Z,-2.7
2023-02-07T01:52:07.448Z,-2.8
2023-02-07T01:54:07.333Z,-2.7
2023-02-07T01:56:11.997Z,-2.7
2023-02-07T01:58:09.712Z,-2.7
2023-02-07T02:00:09.621Z,-2.8
2023-02-07T02:02:12.204Z,-2.9
2023-02-07T02:04:12.007Z,-2.9
2023-02-07T02:06:11.890Z,-3
2023-02-07T02:08:14.354Z,-2.9
2023-02-07T02:10:14.318Z,-2.8
2023-02-07T02:12:14.197Z,-2.9
2023-02-07T02:18:16.475Z,-2.9
2023-02-07T02:20:18.906Z,-2.9
2023-02-07T02:22:18.981Z,-2.9
2023-02-07T02:24:18.700Z,-2.9
2023-02-07T02:26:21.185Z,-2.9
2023-02-07T02:28:21.124Z,-3.1
2023-02-07T02:30:21.010Z,-3
2023-02-07T02:32:23.464Z,-2.9
2023-02-07T02:34:23.343Z,-3.1
2023-02-07T02:36:23.229Z,-3.1
2023-02-07T02:38:25.686Z,-3
2023-02-07T02:40:25.582Z,-3.1
2023-02-07T02:42:25.504Z,-3
2023-02-07T02:44:27.927Z,-3.1
2023-02-07T02:46:27.858Z,-3
2023-02-07T02:48:27.733Z,-2.9
2023-02-07T02:50:30.188Z,-3
2023-02-07T02:52:48.609Z,-3
2023-02-07T02:54:29.995Z,-3
2023-02-07T03:01:39.921Z,-2.8
2023-02-07T03:03:39.787Z,-2.9
2023-02-07T03:07:42.104Z,-3.1
2023-02-07T03:22:32.990Z,-3.2
2023-02-07T03:26:35.343Z,-3.2
2023-02-07T03:28:35.233Z,-3.2
2023-02-07T03:30:37.652Z,-3
2023-02-07T03:32:37.551Z,-3.2
2023-02-07T03:34:37.458Z,-3.1
2023-02-07T03:36:40.039Z,-3.3
2023-02-07T03:38:39.820Z,-3.4
2023-02-07T03:40:39.718Z,-3.3
2023-02-07T03:42:42.158Z,-3.3
2023-02-07T03:44:42.072Z,-3.4
2023-02-07T03:46:42.011Z,-3.4
2023-02-07T03:59:49.136Z,-3.5
2023-02-07T04:01:49.222Z,-3.5
2023-02-07T04:03:51.510Z,-3.5
2023-02-07T04:05:51.401Z,-3.5
2023-02-07T04:07:51.293Z,-3.4
2023-02-07T04:09:53.772Z,-3.5
2023-02-07T04:11:53.655Z,-3.7
2023-02-07T04:13:53.575Z,-3.7
2023-02-07T04:15:56.053Z,-3.8
2023-02-07T04:17:55.939Z,-3.7
2023-02-07T04:19:55.845Z,-3.9
2023-02-07T04:21:58.265Z,-3.9
2023-02-07T04:23:58.179Z,-3.9
2023-02-07T04:25:58.082Z,-3.8
2023-02-07T04:30:00.479Z,-3.8
2023-02-07T04:32:00.441Z,-4
2023-02-07T04:34:02.779Z,-4
2023-02-07T04:36:02.702Z,-3.9
2023-02-07T04:38:02.596Z,-3.7
2023-02-07T04:40:05.027Z,-3.8
2023-02-07T04:42:04.948Z,-3.7
2023-02-07T04:44:04.848Z,-3.8
2023-02-07T04:46:07.487Z,-3.8
2023-02-07T04:48:07.185Z,-3.9
2023-02-07T04:50:07.065Z,-3.8
2023-02-07T04:52:09.539Z,-4
2023-02-07T04:54:09.434Z,-4.1
2023-02-07T04:56:09.310Z,-4
2023-02-07T04:58:11.776Z,-4.2
2023-02-07T05:00:11.707Z,-4.2
2023-02-07T05:02:11.618Z,-4
2023-02-07T05:04:14.147Z,-4
2023-02-07T05:10:16.321Z,-4.2
2023-02-07T05:12:16.198Z,-4.2
2023-02-07T05:14:16.087Z,-4
2023-02-07T05:16:18.600Z,-4
2023-02-07T05:18:18.433Z,-4
2023-02-07T05:20:18.357Z,-4.1
2023-02-07T05:22:20.805Z,-4.1
2023-02-07T05:24:20.714Z,-4.1
2023-02-07T05:30:22.946Z,-4.3
2023-02-07T05:40:27.537Z,-4.4
2023-02-07T05:42:27.417Z,-4.2
2023-02-07T05:44:27.307Z,-4.4
2023-02-07T05:49:29.622Z,-4.3
2023-02-07T05:51:29.519Z,-4.4
2023-02-07T05:53:29.443Z,-4.5
2023-02-07T05:55:31.901Z,-4.6
2023-02-07T05:57:31.795Z,-4.5
2023-02-07T05:59:31.693Z,-4.4
2023-02-07T06:01:35.908Z,-4.4
2023-02-07T06:03:34.153Z,-4.5
2023-02-07T06:05:33.942Z,-4.6
2023-02-07T06:07:36.393Z,-4.5
2023-02-07T06:09:36.269Z,-4.6
2023-02-07T06:11:36.194Z,-4.5
2023-02-07T06:13:38.628Z,-4.6
2023-02-07T06:15:38.851Z,-4.6
2023-02-07T06:17:38.454Z,-4.8
2023-02-07T06:21:46.349Z,-4.5
2023-02-07T06:34:48.384Z,-4.7
2023-02-07T06:36:48.285Z,-4.6
2023-02-07T06:38:48.164Z,-4.7
2023-02-07T06:40:50.630Z,-4.6
2023-02-07T06:42:50.531Z,-4.7
2023-02-07T06:44:50.416Z,-4.7
2023-02-07T06:49:59.726Z,-4.7
2023-02-07T07:00:01.799Z,-4.9
2023-02-07T07:02:04.310Z,-4.9
2023-02-07T07:04:04.227Z,-4.9
2023-02-07T07:06:04.047Z,-4.7
2023-02-07T07:08:06.490Z,-4.5
2023-02-07T07:10:06.581Z,-4.5
2023-02-07T07:12:06.295Z,-4.5
2023-02-07T07:14:08.706Z,-4.5
2023-02-07T07:16:08.703Z,-4.6
2023-02-07T07:18:08.502Z,-4.6
2023-02-07T07:20:10.987Z,-4.5
2023-02-07T07:22:10.867Z,-4.4
2023-02-07T07:24:10.743Z,-4.3
2023-02-07T07:26:13.201Z,-4.2
2023-02-07T07:28:13.161Z,-4.2
2023-02-07T07:30:12.998Z,-4.1
2023-02-07T07:34:15.387Z,-3.9
2023-02-07T07:36:15.229Z,-4.1
2023-02-07T07:38:17.686Z,-4.1
2023-02-07T07:40:17.639Z,-4.1
2023-02-07T07:42:17.480Z,-4.2
2023-02-07T07:44:19.931Z,-4.1
2023-02-07T07:46:19.918Z,-4.1
2023-02-07T07:48:19.874Z,-4.1
2023-02-07T07:50:22.217Z,-3.9
2023-02-07T07:52:22.158Z,-3.8
2023-02-07T07:54:22.012Z,-3.7
2023-02-07T07:56:24.493Z,-3.7
2023-02-07T07:58:24.385Z,-3.6
2023-02-07T08:00:24.418Z,-3.6
2023-02-07T08:02:26.726Z,-3.5
2023-02-07T08:04:26.732Z,-3.4
2023-02-07T08:06:26.564Z,-3.2
2023-02-07T08:08:29.025Z,-3
2023-02-07T08:10:28.918Z,-2.8
2023-02-07T08:12:28.840Z,-2.6
2023-02-07T08:14:31.260Z,-2.2
2023-02-07T08:16:31.174Z,-2.2
2023-02-07T08:20:33.546Z,-1.6
2023-02-07T08:24:33.330Z,-0.6
2023-02-07T08:29:34.204Z,-1
2023-02-07T08:31:34.256Z,-0.4
2023-02-07T08:33:34.003Z,0.7
2023-02-07T08:35:36.495Z,2
2023-02-07T08:37:36.424Z,1.8
2023-02-07T08:39:36.326Z,0.9
2023-02-07T08:44:43.986Z,1.7
2023-02-07T08:48:43.816Z,1.4
2023-02-07T08:52:46.198Z,-0.4
2023-02-07T08:54:46.083Z,-0.7
2023-02-07T08:59:51.995Z,-0.8
2023-02-07T09:01:51.912Z,2.6
2023-02-07T09:03:51.804Z,3.9
2023-02-07T09:15:56.461Z,2.4
2023-02-07T09:17:58.903Z,2.7
2023-02-07T09:19:58.838Z,2.4
2023-02-07T09:21:58.736Z,2.1
2023-02-07T09:24:21.115Z,1.9
2023-02-07T09:28:21.028Z,2.3
2023-02-07T09:30:24.387Z,2.6
2023-02-07T09:38:24.008Z,3.8
2023-02-07T09:40:23.949Z,4.1
2023-02-07T09:42:23.806Z,4.8
2023-02-07T09:44:27.366Z,5
2023-02-07T09:46:27.233Z,5.2
2023-02-07T09:48:27.083Z,5.1
2023-02-07T09:50:26.973Z,5
2023-02-07T09:52:26.880Z,4.4
2023-02-07T09:54:26.758Z,4.3
2023-02-07T09:56:26.663Z,4.5
2023-02-07T09:58:30.013Z,6.1
2023-02-07T10:00:29.904Z,6.5
2023-02-07T10:02:29.847Z,6.8
2023-02-07T10:04:29.679Z,6.9
2023-02-07T10:06:29.469Z,6.8
2023-02-07T10:08:39.779Z,7.3
2023-02-07T10:10:29.192Z,7.3
2023-02-07T10:12:32.363Z,6.9
2023-02-07T10:17:33.551Z,7.7
2023-02-07T10:19:33.287Z,8.1
2023-02-07T10:21:33.123Z,8.9
2023-02-07T10:23:32.992Z,8.4
2023-02-07T10:25:35.996Z,8.7
2023-02-07T10:27:35.819Z,9
2023-02-07T10:29:35.574Z,9.2
2023-02-07T10:31:35.289Z,9.8
2023-02-07T10:33:35.005Z,10
2023-02-07T10:35:34.734Z,9
2023-02-07T10:39:37.538Z,9
2023-02-07T10:41:37.204Z,8.9
2023-02-07T10:45:36.603Z,10.1
2023-02-07T10:53:52.752Z,9.2
2023-02-07T10:55:38.381Z,9
2023-02-07T10:57:38.089Z,9.5
2023-02-07T10:59:37.766Z,9.6
2023-02-07T11:01:39.361Z,9.6
2023-02-07T11:03:37.083Z,9.6
2023-02-07T11:11:39.079Z,10.6
2023-02-07T11:16:39.895Z,11.1
2023-02-07T11:18:39.510Z,11.4
2023-02-07T11:24:41.805Z,10.2
2023-02-07T11:26:41.441Z,10.4
2023-02-07T11:28:41.061Z,10
2023-02-07T11:30:40.703Z,9.4
2023-02-07T11:32:40.315Z,9.4
2023-02-07T11:36:42.981Z,9.2
2023-02-07T11:38:42.621Z,9.5
2023-02-07T11:40:42.372Z,9.8
2023-02-07T11:54:43.049Z,10.8
2023-02-07T11:56:42.701Z,11.4
2023-02-07T11:58:42.330Z,11.2
2023-02-07T12:00:41.947Z,11.2
2023-02-07T12:02:44.963Z,11.2
2023-02-07T12:04:44.648Z,10.8
2023-02-07T12:06:44.188Z,10.2
2023-02-07T12:07:45.696Z,11.2
2023-02-07T12:11:44.909Z,12.1
2023-02-07T12:13:44.526Z,11.2
2023-02-07T12:15:47.531Z,11.4
2023-02-07T12:17:47.136Z,11.8
2023-02-07T12:29:48.226Z,11.4
2023-02-07T12:31:48.146Z,11.7
2023-02-07T12:33:47.466Z,12
2023-02-07T12:37:46.673Z,11.7
2023-02-07T12:39:46.277Z,11.6
2023-02-07T12:41:45.871Z,11.2
2023-02-07T12:43:48.904Z,11.7
2023-02-07T12:47:48.088Z,12.3
2023-02-07T12:49:47.700Z,11.8
2023-02-07T12:51:47.296Z,11.5
2023-02-07T12:55:46.522Z,11.5
2023-02-07T12:57:49.517Z,11.9
2023-02-07T12:59:49.079Z,12.3
2023-02-07T13:01:48.694Z,12.2
2023-02-07T13:06:03.727Z,12.2
2023-02-07T13:08:03.355Z,11.6
2023-02-07T13:10:06.338Z,11.2
2023-02-07T13:20:04.409Z,12.4
2023-02-07T13:22:04.024Z,12.6
2023-02-07T13:24:07.104Z,13.1
2023-02-07T13:28:06.414Z,12.6
2023-02-07T13:32:05.568Z,11.7
2023-02-07T13:34:05.136Z,11.8
2023-02-07T13:36:04.790Z,12.4
2023-02-07T13:38:07.804Z,12.5
2023-02-07T13:40:07.445Z,12.5
2023-02-07T13:42:07.047Z,13.6
2023-02-07T13:44:10.234Z,13.5
2023-02-07T13:46:06.379Z,12.7
2023-02-07T13:52:09.808Z,11.5
2023-02-07T13:56:07.969Z,12.2
2023-02-07T13:57:09.469Z,11.9
2023-02-07T13:59:09.091Z,11.8
2023-02-07T14:01:08.767Z,11.6
2023-02-07T14:03:08.444Z,11.5
2023-02-07T14:05:11.450Z,11.9
2023-02-07T14:07:11.156Z,11.5
2023-02-07T14:09:10.781Z,12.5
2023-02-07T14:11:10.526Z,12.6
2023-02-07T14:13:10.150Z,12.1
2023-02-07T14:15:09.794Z,11.5
2023-02-07T14:17:09.496Z,11.6
2023-02-07T14:23:11.949Z,11.6
2023-02-07T14:25:11.637Z,11.9
2023-02-07T14:35:13.565Z,12
2023-02-07T14:43:12.301Z,12.4
2023-02-07T14:45:11.980Z,12.6
2023-02-07T14:47:15.094Z,12.9
2023-02-07T14:51:14.494Z,12.8
2023-02-07T14:52:16.060Z,12.1
2023-02-07T14:54:15.768Z,11.7
2023-02-07T14:58:16.744Z,10.7
2023-02-07T15:00:19.864Z,10.4
2023-02-07T15:02:19.680Z,10.4
2023-02-07T15:04:19.282Z,10.3
2023-02-07T15:06:30.724Z,10.3
2023-02-07T15:10:18.424Z,9.7
2023-02-07T15:12:26.749Z,9.6
2023-02-07T15:14:21.407Z,10
2023-02-07T15:16:21.237Z,10.1
2023-02-07T15:22:25.453Z,10.5
2023-02-07T15:24:20.162Z,10.7
2023-02-07T15:26:19.982Z,11
2023-02-07T15:30:22.961Z,10.2
2023-02-07T15:32:22.894Z,9.9
2023-02-07T15:36:22.251Z,9.9
2023-02-07T15:38:21.986Z,9.4
2023-02-07T15:40:21.728Z,9.7
2023-02-07T15:42:24.997Z,10.3
2023-02-07T15:44:24.786Z,10
2023-02-07T15:47:26.363Z,9.2
2023-02-07T15:49:25.946Z,9.1
2023-02-07T15:51:25.730Z,8.9
2023-02-07T15:53:25.545Z,8.6
2023-02-07T15:55:28.704Z,8.6
2023-02-07T15:57:28.586Z,8.6
2023-02-07T15:59:28.415Z,8.4
2023-02-07T16:01:28.321Z,8.1
2023-02-07T16:03:28.046Z,6.5
2023-02-07T16:05:27.869Z,5
2023-02-07T16:07:27.721Z,4.3
2023-02-07T16:09:30.978Z,3.8
2023-02-07T16:11:30.789Z,3.7
2023-02-07T16:15:30.493Z,3.4
2023-02-07T16:17:30.382Z,3.2
2023-02-07T16:19:30.247Z,3.1
2023-02-07T16:21:30.133Z,2.9
2023-02-07T16:23:33.486Z,2.8
2023-02-07T16:27:33.136Z,2.6
2023-02-07T16:29:33.032Z,2.5
2023-02-07T16:31:32.991Z,2.4
2023-02-07T16:33:32.809Z,2.3
2023-02-07T16:35:32.694Z,2.2
2023-02-07T16:37:36.097Z,2
2023-02-07T16:43:58.237Z,1.6
2023-02-07T16:45:58.194Z,1.6
2023-02-07T16:47:57.985Z,1.5
2023-02-07T16:50:01.415Z,1.4
2023-02-07T16:52:01.297Z,1.3
2023-02-07T16:54:01.228Z,1.2
2023-02-07T16:56:01.111Z,1.2
2023-02-07T16:58:01.032Z,1.1
2023-02-07T17:00:00.920Z,1
2023-02-07T17:08:04.063Z,0.9
2023-02-07T17:18:07.100Z,0.5
2023-02-07T17:24:06.828Z,0.3
2023-02-07T17:32:09.980Z,0.2
2023-02-07T17:36:09.809Z,0.2
2023-02-07T17:37:11.460Z,0.1
2023-02-07T17:39:11.482Z,0.1
2023-02-07T17:43:11.199Z,0
2023-02-07T17:45:14.813Z,-0.1
2023-02-07T17:47:14.547Z,-0.1
2023-02-07T17:49:14.447Z,-0.1
2023-02-07T17:55:14.178Z,-0.1
2023-02-07T17:57:14.102Z,-0.1
2023-02-07T17:59:17.483Z,-0.2
2023-02-07T18:01:17.465Z,-0.3
2023-02-07T18:03:17.316Z,-0.3
2023-02-07T18:05:17.244Z,-0.2
2023-02-07T18:07:17.160Z,-0.1
2023-02-07T18:09:17.068Z,-0.1
2023-02-07T18:11:17.001Z,-0.2
2023-02-07T18:15:20.299Z,-0.3
2023-02-07T18:17:20.271Z,-0.4
2023-02-07T18:19:20.138Z,-0.5
2023-02-07T18:21:20.068Z,-0.6
2023-02-07T18:23:19.985Z,-0.7
2023-02-07T18:25:19.901Z,-0.8
2023-02-07T18:27:23.319Z,-0.8
2023-02-07T18:29:23.235Z,-0.8
2023-02-07T18:31:23.295Z,-0.9
2023-02-07T18:32:24.825Z,-0.9
2023-02-07T18:34:24.760Z,-0.9
2023-02-07T18:40:28.017Z,-1
2023-02-07T18:42:27.886Z,-0.9
2023-02-07T18:44:27.834Z,-0.9
2023-02-07T18:46:27.785Z,-1
2023-02-07T18:48:27.775Z,-1.1
2023-02-07T18:50:27.567Z,-1.2
2023-02-07T18:52:27.504Z,-1.2
2023-02-07T18:54:30.937Z,-1.2
2023-02-07T19:00:30.659Z,-1.3
2023-02-07T19:02:30.702Z,-1.4
2023-02-07T19:04:30.525Z,-1.4
2023-02-07T19:06:30.400Z,-1.5
2023-02-07T19:08:33.815Z,-1.6
2023-02-07T19:10:33.699Z,-1.6
2023-02-07T19:12:33.651Z,-1.6
2023-02-07T19:14:33.573Z,-1.7
2023-02-07T19:16:33.474Z,-1.7
2023-02-07T19:20:33.320Z,-1.7
2023-02-07T19:22:37.634Z,-1.8
2023-02-07T19:24:36.671Z,-1.9
2023-02-07T19:26:36.596Z,-1.8
2023-02-07T19:27:38.431Z,-1.7
2023-02-07T19:29:38.226Z,-1.7
2023-02-07T19:31:38.195Z,-1.8
2023-02-07T19:33:38.079Z,-1.7
2023-02-07T19:35:41.487Z,-1.7
2023-02-07T19:39:41.320Z,-1.6
2023-02-07T19:41:41.279Z,-1.5
2023-02-07T19:45:41.109Z,-1.5
2023-02-07T19:47:41.002Z,-1.5
2023-02-07T19:49:44.450Z,-1.6
2023-02-07T19:51:44.370Z,-1.6
2023-02-07T19:53:44.436Z,-1.7
2023-02-07T19:55:44.174Z,-1.7
2023-02-07T20:03:47.379Z,-1.8
2023-02-07T20:05:47.242Z,-1.8
2023-02-07T20:07:47.168Z,-1.9
2023-02-07T20:23:58.381Z,-2.1
2023-02-07T20:27:58.299Z,-2.2
2023-02-07T20:30:00.708Z,-2.2
2023-02-07T20:32:00.699Z,-2.4
2023-02-07T20:34:00.545Z,-2.4
2023-02-07T20:38:02.950Z,-2.4
2023-02-07T20:40:02.817Z,-2.5
2023-02-07T20:42:05.285Z,-2.4
2023-02-07T20:44:05.501Z,-2.4
2023-02-07T20:46:05.113Z,-2.4
2023-02-07T20:48:07.592Z,-2.4
2023-02-07T20:50:07.490Z,-2.5
2023-02-07T20:52:07.382Z,-2.5
2023-02-07T20:54:09.850Z,-2.6
2023-02-07T20:56:09.797Z,-2.6
2023-02-07T20:58:09.681Z,-2.5
2023-02-07T21:00:12.147Z,-2.6
2023-02-07T21:02:12.080Z,-2.5
2023-02-07T21:04:11.988Z,-2.5
2023-02-07T21:06:14.389Z,-2.6
2023-02-07T21:08:14.316Z,-2.5
2023-02-07T21:10:14.239Z,-2.6
2023-02-07T21:18:19.018Z,-2.8
2023-02-07T21:20:19.064Z,-2.8
2023-02-07T21:22:18.840Z,-2.8
2023-02-07T21:24:21.340Z,-2.8
2023-02-07T21:28:21.256Z,-2.7
2023-02-07T21:33:22.227Z,-2.7
2023-02-07T21:35:22.136Z,-2.8
2023-02-07T21:37:22.061Z,-2.8
2023-02-07T21:39:24.576Z,-2.9
2023-02-07T21:41:24.462Z,-3
2023-02-07T21:43:24.371Z,-3
2023-02-07T21:45:26.885Z,-3.1
2023-02-07T21:47:26.737Z,-3
2023-02-07T21:49:26.682Z,-3.1
2023-02-07T21:51:29.288Z,-3.1
2023-02-07T21:53:29.057Z,-3.1
2023-02-07T21:55:28.997Z,-3.2
2023-02-07T21:57:31.451Z,-3.2
2023-02-07T21:59:31.405Z,-3.2
2023-02-07T22:01:31.421Z,-3.2
2023-02-07T22:03:33.789Z,-3.1
2023-02-07T22:05:33.681Z,-3.1
2023-02-07T22:07:33.575Z,-3.1
2023-02-07T22:09:36.064Z,-3.3
2023-02-07T22:15:38.401Z,-3.4
2023-02-07T22:17:38.291Z,-3.4
2023-02-07T22:19:38.197Z,-3.4
2023-02-07T22:24:43.209Z,-3.4
2023-02-07T22:26:43.131Z,-3.4
2023-02-07T22:32:45.391Z,-3.4
2023-02-07T22:39:50.551Z,-3.4
2023-02-07T22:41:50.488Z,-3.4
2023-02-07T22:43:50.395Z,-3.6
2023-02-07T22:45:52.854Z,-3.4
2023-02-07T22:47:52.942Z,-3.5
2023-02-07T22:49:52.643Z,-3.6
2023-02-07T22:51:55.120Z,-3.6
2023-02-07T22:53:55.040Z,-3.7
2023-02-07T22:55:54.940Z,-3.6
2023-02-07T22:57:57.408Z,-3.7
2023-02-07T22:59:57.327Z,-3.7
2023-02-07T23:01:57.213Z,-3.7
2023-02-07T23:03:59.731Z,-3.7
2023-02-07T23:05:59.589Z,-3.8
2023-02-07T23:07:59.487Z,-3.8
2023-02-07T23:10:01.968Z,-3.8
2023-02-07T23:12:01.891Z,-3.8
2023-02-07T23:14:01.787Z,-3.8
2023-02-07T23:16:04.233Z,-3.7
2023-02-07T23:18:04.145Z,-3.6
2023-02-07T23:20:04.085Z,-3.7
2023-02-07T23:27:08.652Z,-3.8
2023-02-07T23:29:08.546Z,-3.9
2023-02-07T23:31:11.104Z,-3.8
2023-02-07T23:33:10.959Z,-3.7
2023-02-07T23:35:10.850Z,-3.8
2023-02-07T23:40:21.238Z,-3.9
2023-02-07T23:42:21.137Z,-4
2023-02-07T23:44:21.096Z,-4
2023-02-07T23:49:21.145Z,-3.9
2023-02-07T23:51:21.029Z,-3.9
2023-02-07T23:59:23.219Z,-4.1
